createdAt,value
2023-02-01T00:00:04.928Z,56.31
2023-02-01T00:01:05.768Z,61.45
2023-02-01T00:02:05.688Z,52.84
2023-02-01T00:03:04.911Z,55.16
2023-02-01T00:04:05.791Z,54.61
2023-02-01T00:05:05.307Z,56.72
2023-02-01T00:06:05.822Z,54.75
2023-02-01T00:07:04.911Z,58.82
2023-02-01T00:08:04.865Z,59.04
2023-02-01T00:09:04.867Z,56.78
2023-02-01T00:10:05.704Z,52.73
2023-02-01T00:11:04.855Z,58.18
2023-02-01T00:12:04.835Z,55.28
2023-02-01T00:13:04.819Z,52.56
2023-02-01T00:14:05.694Z,53.58
2023-02-01T00:15:05.776Z,57.46
2023-02-01T00:16:04.870Z,55.58
2023-02-01T00:17:04.799Z,59.35
2023-02-01T00:18:04.781Z,59.46
2023-02-01T00:19:04.778Z,53.26
2023-02-01T00:20:05.283Z,53.27
2023-02-01T00:21:04.761Z,54.65
2023-02-01T00:22:04.760Z,57.23
2023-02-01T00:23:04.749Z,55.13
2023-02-01T00:24:04.726Z,63.63
2023-02-01T00:26:55.679Z,55.34
2023-02-01T00:27:55.606Z,60.45
2023-02-01T00:28:55.586Z,56.49
2023-02-01T00:29:55.580Z,51.05
2023-02-01T00:30:55.629Z,49.27
2023-02-01T00:31:55.578Z,57.75
2023-02-01T00:32:55.568Z,56.85
2023-02-01T00:33:55.546Z,62.97
2023-02-01T00:34:55.545Z,59.39
2023-02-01T00:35:55.543Z,59.34
2023-02-01T00:36:55.519Z,61.86
2023-02-01T00:37:55.523Z,53.47
2023-02-01T00:38:55.505Z,51.01
2023-02-01T00:39:55.505Z,57.06
2023-02-01T00:40:55.499Z,58.48
2023-02-01T00:41:55.479Z,51.40
2023-02-01T00:42:55.487Z,66.66
2023-02-01T00:43:55.476Z,54.03
2023-02-01T00:44:55.463Z,54.17
2023-02-01T00:45:55.450Z,52.84
2023-02-01T00:46:55.536Z,48.39
2023-02-01T00:47:55.438Z,51.76
2023-02-01T00:48:55.426Z,58.71
2023-02-01T00:49:55.425Z,61.00
2023-02-01T00:50:55.412Z,59.58
2023-02-01T00:51:55.413Z,57.58
2023-02-01T00:52:55.392Z,52.88
2023-02-01T00:53:55.384Z,52.83
2023-02-01T00:54:55.378Z,54.29
2023-02-01T00:55:55.365Z,53.65
2023-02-01T00:56:55.355Z,52.54
2023-02-01T00:57:55.352Z,49.00
2023-02-01T00:58:55.348Z,61.82
2023-02-01T00:59:55.340Z,50.53
2023-02-01T01:00:55.428Z,51.17
2023-02-01T01:01:55.402Z,53.08
2023-02-01T01:02:55.311Z,57.84
2023-02-01T01:03:55.305Z,56.36
2023-02-01T01:04:55.308Z,48.61
2023-02-01T01:05:55.291Z,53.83
2023-02-01T01:06:55.288Z,52.41
2023-02-01T01:07:55.296Z,54.10
2023-02-01T01:08:55.267Z,59.83
2023-02-01T01:09:55.257Z,51.15
2023-02-01T01:10:55.251Z,60.83
2023-02-01T01:11:55.243Z,58.97
2023-02-01T01:12:55.230Z,59.43
2023-02-01T01:13:55.232Z,52.69
2023-02-01T01:14:56.319Z,52.23
2023-02-01T01:15:56.327Z,53.41
2023-02-01T01:16:56.296Z,58.02
2023-02-01T01:17:56.303Z,55.53
2023-02-01T01:18:56.304Z,48.75
2023-02-01T01:19:58.914Z,57.88
2023-02-01T01:20:56.267Z,55.27
2023-02-01T01:21:56.274Z,57.70
2023-02-01T01:22:56.254Z,56.83
2023-02-01T01:23:56.273Z,55.13
2023-02-01T01:24:56.249Z,61.92
2023-02-01T01:25:56.228Z,48.87
2023-02-01T01:26:56.226Z,48.28
2023-02-01T01:27:56.225Z,48.76
2023-02-01T01:28:57.064Z,51.43
2023-02-01T01:29:56.193Z,59.55
2023-02-01T01:30:56.987Z,50.95
2023-02-01T01:31:56.227Z,48.86
2023-02-01T01:32:56.172Z,51.16
2023-02-01T01:33:57.058Z,48.89
2023-02-01T01:34:56.153Z,54.07
2023-02-01T01:35:56.149Z,52.94
2023-02-01T01:36:56.144Z,55.90
2023-02-01T01:37:56.122Z,51.51
2023-02-01T01:38:56.133Z,55.17
2023-02-01T01:39:56.117Z,52.44
2023-02-01T01:40:56.103Z,51.69
2023-02-01T01:41:56.088Z,52.13
2023-02-01T01:42:56.087Z,57.74
2023-02-01T01:43:56.092Z,49.21
2023-02-01T01:44:56.078Z,51.77
2023-02-01T01:45:56.063Z,55.35
2023-02-01T01:46:56.090Z,62.38
2023-02-01T01:47:56.041Z,53.14
2023-02-01T01:48:56.037Z,49.25
2023-02-01T01:49:56.021Z,61.81
2023-02-01T01:50:56.029Z,50.08
2023-02-01T01:51:56.036Z,51.90
2023-02-01T01:52:56.000Z,59.85
2023-02-01T01:53:56.029Z,56.26
2023-02-01T01:54:57.000Z,54.45
2023-02-01T01:55:56.000Z,48.94
2023-02-01T01:56:55.978Z,54.43
2023-02-01T01:57:55.964Z,48.76
2023-02-01T01:58:55.956Z,52.01
2023-02-01T01:59:55.963Z,57.00
2023-02-01T02:00:56.021Z,51.90
2023-02-01T02:01:56.954Z,58.50
2023-02-01T02:02:55.943Z,58.50
2023-02-01T02:03:55.939Z,51.31
2023-02-01T02:04:55.926Z,63.76
2023-02-01T02:05:55.906Z,57.98
2023-02-01T02:06:55.897Z,55.21
2023-02-01T02:07:55.881Z,48.15
2023-02-01T02:08:56.564Z,58.33
2023-02-01T02:10:00.839Z,49.91
2023-02-01T02:10:57.888Z,48.48
2023-02-01T02:11:55.873Z,53.78
2023-02-01T02:12:55.853Z,55.38
2023-02-01T02:13:55.832Z,57.96
2023-02-01T02:14:55.828Z,54.53
2023-02-01T02:15:56.561Z,48.45
2023-02-01T02:16:55.809Z,55.30
2023-02-01T02:17:55.807Z,50.64
2023-02-01T02:18:55.793Z,52.33
2023-02-01T02:19:55.811Z,59.16
2023-02-01T02:20:56.562Z,55.42
2023-02-01T02:21:55.780Z,62.72
2023-02-01T02:22:55.776Z,55.45
2023-02-01T02:23:55.756Z,48.22
2023-02-01T02:24:55.756Z,49.60
2023-02-01T02:25:55.748Z,61.02
2023-02-01T02:26:55.745Z,54.28
2023-02-01T02:27:55.732Z,52.17
2023-02-01T02:28:55.722Z,55.91
2023-02-01T02:29:55.707Z,57.48
2023-02-01T02:30:55.715Z,53.33
2023-02-01T02:31:55.770Z,52.35
2023-02-01T02:32:56.496Z,50.45
2023-02-01T02:33:55.675Z,57.26
2023-02-01T02:34:55.670Z,48.23
2023-02-01T02:35:55.699Z,47.92
2023-02-01T02:36:55.652Z,53.99
2023-02-01T02:37:55.648Z,56.36
2023-02-01T02:38:55.652Z,55.56
2023-02-01T02:39:55.630Z,54.87
2023-02-01T02:40:55.641Z,54.20
2023-02-01T02:41:56.615Z,51.79
2023-02-01T02:42:58.222Z,49.09
2023-02-01T02:43:56.612Z,57.05
2023-02-01T02:44:55.593Z,64.59
2023-02-01T02:45:55.623Z,58.24
2023-02-01T02:46:55.578Z,52.39
2023-02-01T02:47:55.581Z,55.56
2023-02-01T02:48:55.563Z,51.27
2023-02-01T02:49:56.496Z,48.20
2023-02-01T02:50:55.548Z,50.34
2023-02-01T02:51:55.541Z,51.74
2023-02-01T02:52:55.578Z,56.43
2023-02-01T02:53:57.068Z,53.07
2023-02-01T02:54:55.509Z,48.05
2023-02-01T02:55:56.513Z,48.82
2023-02-01T02:56:55.519Z,57.39
2023-02-01T02:57:55.497Z,59.50
2023-02-01T02:58:55.479Z,58.71
2023-02-01T02:59:55.486Z,53.10
2023-02-01T03:00:55.515Z,56.00
2023-02-01T03:01:55.460Z,49.66
2023-02-01T03:02:55.527Z,48.91
2023-02-01T03:03:55.452Z,49.39
2023-02-01T03:04:55.462Z,55.33
2023-02-01T03:05:55.431Z,56.61
2023-02-01T03:06:55.429Z,55.69
2023-02-01T03:07:55.427Z,51.18
2023-02-01T03:08:55.403Z,51.78
2023-02-01T03:09:55.398Z,52.24
2023-02-01T03:10:55.393Z,48.45
2023-02-01T03:11:55.398Z,54.54
2023-02-01T03:12:55.378Z,53.52
2023-02-01T03:13:55.371Z,53.62
2023-02-01T03:14:55.358Z,52.91
2023-02-01T03:15:55.384Z,51.90
2023-02-01T03:16:55.349Z,55.48
2023-02-01T03:17:55.328Z,54.97
2023-02-01T03:18:55.343Z,58.08
2023-02-01T03:19:55.319Z,57.29
2023-02-01T03:20:55.316Z,49.13
2023-02-01T03:21:55.026Z,48.75
2023-02-01T03:22:55.290Z,51.16
2023-02-01T03:23:55.294Z,52.43
2023-02-01T03:24:55.292Z,49.97
2023-02-01T03:25:55.267Z,54.46
2023-02-01T03:26:55.263Z,46.08
2023-02-01T03:27:55.275Z,58.28
2023-02-01T03:28:55.245Z,60.50
2023-02-01T03:29:56.223Z,52.23
2023-02-01T03:30:55.227Z,52.28
2023-02-01T03:31:55.272Z,45.78
2023-02-01T03:32:55.215Z,53.62
2023-02-01T03:33:55.996Z,62.50
2023-02-01T03:34:55.196Z,60.31
2023-02-01T03:35:55.178Z,53.36
2023-02-01T03:36:56.179Z,55.88
2023-02-01T03:37:55.177Z,55.07
2023-02-01T03:38:55.171Z,53.72
2023-02-01T03:39:55.157Z,56.97
2023-02-01T03:40:55.152Z,60.55
2023-02-01T03:41:55.145Z,53.67
2023-02-01T03:42:55.135Z,56.93
2023-02-01T03:43:55.128Z,57.64
2023-02-01T03:44:55.121Z,48.16
2023-02-01T03:45:55.158Z,55.17
2023-02-01T03:46:55.103Z,54.74
2023-02-01T03:47:55.106Z,58.72
2023-02-01T03:48:55.090Z,51.16
2023-02-01T03:49:55.084Z,62.77
2023-02-01T03:50:55.998Z,62.19
2023-02-01T03:51:55.124Z,58.85
2023-02-01T03:52:55.055Z,55.80
2023-02-01T03:53:56.001Z,60.30
2023-02-01T03:54:55.059Z,61.36
2023-02-01T03:55:55.035Z,63.22
2023-02-01T03:56:55.028Z,57.45
2023-02-01T03:57:55.007Z,51.43
2023-02-01T03:58:55.022Z,58.39
2023-02-01T03:59:55.009Z,58.61
2023-02-01T04:00:55.043Z,53.10
2023-02-01T04:04:01.830Z,58.85
2023-02-01T04:05:02.906Z,53.41
2023-02-01T04:06:02.902Z,56.56
2023-02-01T04:07:02.896Z,53.40
2023-02-01T04:08:02.883Z,62.45
2023-02-01T04:09:02.870Z,52.88
2023-02-01T04:10:02.874Z,61.86
2023-02-01T04:11:02.856Z,63.50
2023-02-01T04:12:03.759Z,60.46
2023-02-01T04:13:02.842Z,58.08
2023-02-01T04:14:02.839Z,63.86
2023-02-01T04:15:03.684Z,60.56
2023-02-01T04:16:02.835Z,68.97
2023-02-01T04:17:02.814Z,70.54
2023-02-01T04:18:02.808Z,66.84
2023-02-01T04:19:02.804Z,62.31
2023-02-01T04:20:02.811Z,65.41
2023-02-01T04:21:02.775Z,65.80
2023-02-01T04:22:02.784Z,64.64
2023-02-01T04:23:02.761Z,61.80
2023-02-01T04:24:02.754Z,59.81
2023-02-01T04:25:02.748Z,59.21
2023-02-01T04:26:03.741Z,64.23
2023-02-01T04:27:02.728Z,54.85
2023-02-01T04:28:02.714Z,55.20
2023-02-01T04:29:02.729Z,59.85
2023-02-01T04:30:02.707Z,59.38
2023-02-01T04:31:02.780Z,61.88
2023-02-01T04:32:02.690Z,70.64
2023-02-01T04:33:02.677Z,72.57
2023-02-01T04:34:02.677Z,66.33
2023-02-01T04:35:02.712Z,66.54
2023-02-01T04:36:02.654Z,63.36
2023-02-01T04:37:02.650Z,62.22
2023-02-01T04:38:02.642Z,64.39
2023-02-01T04:39:02.641Z,68.23
2023-02-01T04:40:03.271Z,61.60
2023-02-01T04:41:02.618Z,64.12
2023-02-01T04:42:02.613Z,60.92
2023-02-01T04:43:02.606Z,63.09
2023-02-01T04:44:02.601Z,63.97
2023-02-01T04:45:02.582Z,64.48
2023-02-01T04:46:02.619Z,62.37
2023-02-01T04:47:02.561Z,66.16
2023-02-01T04:48:02.556Z,65.21
2023-02-01T04:49:02.556Z,69.68
2023-02-01T04:50:02.558Z,65.40
2023-02-01T04:51:02.548Z,68.21
2023-02-01T04:52:02.542Z,61.33
2023-02-01T04:53:02.528Z,61.78
2023-02-01T04:54:02.516Z,62.79
2023-02-01T04:55:02.520Z,62.61
2023-02-01T04:56:02.513Z,64.99
2023-02-01T04:57:02.496Z,61.33
2023-02-01T04:58:02.493Z,61.85
2023-02-01T04:59:02.533Z,63.76
2023-02-01T05:00:02.478Z,64.52
2023-02-01T05:01:02.493Z,60.82
2023-02-01T05:02:02.459Z,66.63
2023-02-01T05:03:02.453Z,67.25
2023-02-01T05:04:03.151Z,59.85
2023-02-01T05:05:02.516Z,63.89
2023-02-01T05:06:02.439Z,65.41
2023-02-01T05:07:02.439Z,63.42
2023-02-01T05:08:02.414Z,62.54
2023-02-01T05:09:02.413Z,65.08
2023-02-01T05:10:02.412Z,60.83
2023-02-01T05:11:02.385Z,65.30
2023-02-01T05:12:03.398Z,63.19
2023-02-01T05:13:02.385Z,64.90
2023-02-01T05:14:02.748Z,69.03
2023-02-01T05:15:03.375Z,69.77
2023-02-01T05:16:02.425Z,70.31
2023-02-01T05:17:03.298Z,67.45
2023-02-01T05:18:02.344Z,66.46
2023-02-01T05:19:02.332Z,67.12
2023-02-01T05:20:02.336Z,66.55
2023-02-01T05:21:02.315Z,67.60
2023-02-01T05:22:02.323Z,64.88
2023-02-01T05:23:02.335Z,63.82
2023-02-01T05:24:02.298Z,64.45
2023-02-01T05:25:03.281Z,63.36
2023-02-01T05:26:02.286Z,63.43
2023-02-01T05:27:02.803Z,64.72
2023-02-01T05:28:02.457Z,67.81
2023-02-01T05:29:02.256Z,65.10
2023-02-01T05:30:02.269Z,65.79
2023-02-01T05:31:02.832Z,65.43
2023-02-01T05:32:19.374Z,68.26
2023-02-01T05:33:06.205Z,65.18
2023-02-01T05:34:03.209Z,66.26
2023-02-01T05:35:02.211Z,65.60
2023-02-01T05:36:02.206Z,63.50
2023-02-01T05:37:02.212Z,66.20
2023-02-01T05:38:02.188Z,67.16
2023-02-01T05:39:02.261Z,63.73
2023-02-01T05:40:02.172Z,61.81
2023-02-01T05:41:02.165Z,65.95
2023-02-01T05:42:02.154Z,67.08
2023-02-01T05:43:02.141Z,64.30
2023-02-01T05:44:02.137Z,65.22
2023-02-01T05:45:02.136Z,64.54
2023-02-01T05:46:02.151Z,63.97
2023-02-01T05:47:02.115Z,65.91
2023-02-01T05:48:02.108Z,64.43
2023-02-01T05:49:02.107Z,66.50
2023-02-01T05:50:02.090Z,68.71
2023-02-01T05:51:02.088Z,66.12
2023-02-01T05:52:02.087Z,66.71
2023-02-01T05:53:02.068Z,67.91
2023-02-01T05:54:02.069Z,64.81
2023-02-01T05:55:02.056Z,64.88
2023-02-01T05:56:02.052Z,66.29
2023-02-01T05:57:02.039Z,66.13
2023-02-01T05:58:02.032Z,63.74
2023-02-01T05:59:02.767Z,65.19
2023-02-01T06:00:02.024Z,65.83
2023-02-01T06:01:02.015Z,66.98
2023-02-01T06:02:02.010Z,67.84
2023-02-01T06:03:02.056Z,68.49
2023-02-01T06:04:02.020Z,63.36
2023-02-01T06:05:01.975Z,69.26
2023-02-01T06:06:02.010Z,66.37
2023-02-01T06:07:01.961Z,67.18
2023-02-01T06:08:01.947Z,65.94
2023-02-01T06:09:01.949Z,63.99
2023-02-01T06:10:01.962Z,65.34
2023-02-01T06:11:01.937Z,65.10
2023-02-01T06:12:01.924Z,68.53
2023-02-01T06:13:01.923Z,66.61
2023-02-01T06:14:01.943Z,67.62
2023-02-01T06:15:02.722Z,65.64
2023-02-01T06:16:04.714Z,65.11
2023-02-01T06:17:01.881Z,69.05
2023-02-01T06:18:01.871Z,67.34
2023-02-01T06:19:01.886Z,65.09
2023-02-01T06:20:01.857Z,68.14
2023-02-01T06:21:01.866Z,70.36
2023-02-01T06:22:01.841Z,68.25
2023-02-01T06:23:01.853Z,66.38
2023-02-01T06:24:01.839Z,66.97
2023-02-01T06:25:01.820Z,70.21
2023-02-01T06:26:01.847Z,67.47
2023-02-01T06:27:01.813Z,66.09
2023-02-01T06:28:01.800Z,68.37
2023-02-01T06:29:01.794Z,68.91
2023-02-01T06:30:01.787Z,65.41
2023-02-01T06:31:01.978Z,67.69
2023-02-01T06:32:03.378Z,68.26
2023-02-01T06:33:02.289Z,68.49
2023-02-01T06:34:01.759Z,68.28
2023-02-01T06:35:01.740Z,68.35
2023-02-01T06:36:01.757Z,68.84
2023-02-01T06:37:01.727Z,70.28
2023-02-01T06:38:01.751Z,70.19
2023-02-01T06:39:01.726Z,68.09
2023-02-01T06:40:01.754Z,68.33
2023-02-01T06:41:01.699Z,68.33
2023-02-01T06:42:33.907Z,70.04
2023-02-01T06:43:01.683Z,68.14
2023-02-01T06:44:01.680Z,69.25
2023-02-01T06:45:01.679Z,66.79
2023-02-01T06:46:01.663Z,67.02
2023-02-01T06:47:02.281Z,66.41
2023-02-01T06:48:01.643Z,66.94
2023-02-01T06:49:01.648Z,67.42
2023-02-01T06:50:01.630Z,66.93
2023-02-01T06:51:01.625Z,66.78
2023-02-01T06:52:01.610Z,66.53
2023-02-01T06:53:01.617Z,67.89
2023-02-01T06:54:02.329Z,69.53
2023-02-01T06:55:01.628Z,69.25
2023-02-01T06:56:01.614Z,67.02
2023-02-01T06:57:01.592Z,68.57
2023-02-01T06:58:01.580Z,67.92
2023-02-01T06:59:01.570Z,67.18
2023-02-01T07:00:01.602Z,66.44
2023-02-01T07:01:01.594Z,70.11
2023-02-01T07:02:01.622Z,71.00
2023-02-01T07:03:01.530Z,69.80
2023-02-01T07:04:01.562Z,69.36
2023-02-01T07:05:01.516Z,69.57
2023-02-01T07:06:01.526Z,67.93
2023-02-01T07:07:01.497Z,68.25
2023-02-01T07:08:01.493Z,68.79
2023-02-01T07:09:01.494Z,71.36
2023-02-01T07:10:01.473Z,70.39
2023-02-01T07:11:01.479Z,68.08
2023-02-01T07:12:01.468Z,67.29
2023-02-01T07:13:01.450Z,65.36
2023-02-01T07:14:01.467Z,64.56
2023-02-01T07:15:01.440Z,65.37
2023-02-01T07:16:01.462Z,69.50
2023-02-01T07:17:01.413Z,67.28
2023-02-01T07:18:01.421Z,67.16
2023-02-01T07:19:01.410Z,66.01
2023-02-01T07:20:01.394Z,67.89
2023-02-01T07:21:01.414Z,68.26
2023-02-01T07:22:01.390Z,65.91
2023-02-01T07:23:02.254Z,65.46
2023-02-01T07:24:03.371Z,68.17
2023-02-01T07:25:01.394Z,70.91
2023-02-01T07:26:01.377Z,67.57
2023-02-01T07:27:01.753Z,67.22
2023-02-01T07:28:01.343Z,68.03
2023-02-01T07:29:01.340Z,68.71
2023-02-01T07:30:02.326Z,66.68
2023-02-01T07:31:02.954Z,68.92
2023-02-01T07:32:01.336Z,66.12
2023-02-01T07:33:01.301Z,66.42
2023-02-01T07:34:01.307Z,65.82
2023-02-01T07:35:01.301Z,65.03
2023-02-01T07:36:01.270Z,67.93
2023-02-01T07:37:01.271Z,64.82
2023-02-01T07:38:01.271Z,66.30
2023-02-01T07:39:01.273Z,64.59
2023-02-01T07:40:01.280Z,66.76
2023-02-01T07:41:01.246Z,66.77
2023-02-01T07:42:01.226Z,66.94
2023-02-01T07:43:01.221Z,65.08
2023-02-01T07:44:01.230Z,65.30
2023-02-01T07:45:11.218Z,65.08
2023-02-01T07:46:03.880Z,66.69
2023-02-01T07:47:01.217Z,65.92
2023-02-01T07:48:01.202Z,64.85
2023-02-01T07:49:01.192Z,64.91
2023-02-01T07:50:01.204Z,67.51
2023-02-01T07:51:01.193Z,67.24
2023-02-01T07:52:01.165Z,67.37
2023-02-01T07:53:01.171Z,65.99
2023-02-01T07:54:01.172Z,64.19
2023-02-01T07:55:01.148Z,67.21
2023-02-01T07:56:01.128Z,67.23
2023-02-01T07:57:01.153Z,67.34
2023-02-01T07:58:01.187Z,68.42
2023-02-01T07:59:01.115Z,69.87
2023-02-01T08:00:01.087Z,69.29
2023-02-01T08:01:02.140Z,69.85
2023-02-01T08:02:01.805Z,67.29
2023-02-01T08:03:01.083Z,70.05
2023-02-01T08:04:02.925Z,67.71
2023-02-01T08:05:01.058Z,66.55
2023-02-01T08:06:01.059Z,66.53
2023-02-01T08:07:01.054Z,65.92
2023-02-01T08:08:01.048Z,65.99
2023-02-01T08:09:01.038Z,65.38
2023-02-01T08:10:01.034Z,65.03
2023-02-01T08:11:01.007Z,64.96
2023-02-01T08:12:01.000Z,63.90
2023-02-01T08:13:01.043Z,66.82
2023-02-01T08:14:00.993Z,67.38
2023-02-01T08:15:00.976Z,65.71
2023-02-01T08:16:00.977Z,65.78
2023-02-01T08:17:00.971Z,67.65
2023-02-01T08:18:01.037Z,67.47
2023-02-01T08:19:00.963Z,68.45
2023-02-01T08:20:00.978Z,66.45
2023-02-01T08:21:00.939Z,66.90
2023-02-01T08:22:00.925Z,65.60
2023-02-01T08:23:00.924Z,65.16
2023-02-01T08:24:03.839Z,66.50
2023-02-01T08:25:00.904Z,65.17
2023-02-01T08:26:00.891Z,69.41
2023-02-01T08:27:02.767Z,67.88
2023-02-01T08:28:01.795Z,67.61
2023-02-01T08:29:00.877Z,66.02
2023-02-01T08:30:00.871Z,68.54
2023-02-01T08:31:02.925Z,67.71
2023-02-01T08:32:00.876Z,65.59
2023-02-01T08:33:00.840Z,67.99
2023-02-01T08:34:02.773Z,65.78
2023-02-01T08:35:00.838Z,68.34
2023-02-01T08:36:01.760Z,66.44
2023-02-01T08:37:00.815Z,67.41
2023-02-01T08:38:00.811Z,66.60
2023-02-01T08:39:00.805Z,67.58
2023-02-01T08:40:00.796Z,66.29
2023-02-01T08:41:00.781Z,65.68
2023-02-01T08:42:00.775Z,68.12
2023-02-01T08:43:00.874Z,66.27
2023-02-01T08:44:00.762Z,66.27
2023-02-01T08:45:00.748Z,66.61
2023-02-01T08:46:01.442Z,67.21
2023-02-01T08:47:00.763Z,66.06
2023-02-01T08:48:00.732Z,67.04
2023-02-01T08:49:00.713Z,69.91
2023-02-01T08:50:01.727Z,64.71
2023-02-01T08:51:00.710Z,67.43
2023-02-01T08:52:04.028Z,64.85
2023-02-01T08:53:02.678Z,66.89
2023-02-01T08:54:00.678Z,68.46
2023-02-01T08:55:00.679Z,68.72
2023-02-01T08:56:00.663Z,68.07
2023-02-01T08:57:00.667Z,67.15
2023-02-01T08:58:00.650Z,65.37
2023-02-01T08:59:00.641Z,65.62
2023-02-01T09:00:05.722Z,66.35
2023-02-01T09:01:00.688Z,66.72
2023-02-01T09:02:02.272Z,66.23
2023-02-01T09:03:01.605Z,68.47
2023-02-01T09:04:02.498Z,68.76
2023-02-01T09:05:02.291Z,68.03
2023-02-01T09:06:00.599Z,65.67
2023-02-01T09:07:00.622Z,64.19
2023-02-01T09:08:00.592Z,64.59
2023-02-01T09:09:00.574Z,66.48
2023-02-01T09:10:00.555Z,62.25
2023-02-01T09:11:02.995Z,63.91
2023-02-01T09:12:01.548Z,64.30
2023-02-01T09:13:00.523Z,65.72
2023-02-01T09:14:01.357Z,65.56
2023-02-01T09:15:00.766Z,64.71
2023-02-01T09:16:00.652Z,63.51
2023-02-01T09:17:00.534Z,67.91
2023-02-01T09:18:00.494Z,64.86
2023-02-01T09:19:24.489Z,65.13
2023-02-01T09:20:02.484Z,67.99
2023-02-01T09:21:00.469Z,66.69
2023-02-01T09:22:00.468Z,68.39
2023-02-01T09:23:00.443Z,68.48
2023-02-01T09:24:00.460Z,67.30
2023-02-01T09:25:00.460Z,65.22
2023-02-01T09:26:00.424Z,66.08
2023-02-01T21:26:04.889Z,60.62
2023-02-01T21:27:04.889Z,62.23
2023-02-01T21:28:04.888Z,62.12
2023-02-01T21:29:04.873Z,62.67
2023-02-01T21:30:06.363Z,66.78
2023-02-01T21:31:04.868Z,64.67
2023-02-01T21:32:04.968Z,64.89
2023-02-01T21:33:04.841Z,61.91
2023-02-01T21:34:04.897Z,61.48
2023-02-01T21:35:04.811Z,62.55
2023-02-01T21:36:04.804Z,62.31
2023-02-01T21:37:04.806Z,60.37
2023-02-01T21:38:04.803Z,61.31
2023-02-01T21:39:04.822Z,60.14
2023-02-01T21:40:04.778Z,55.44
2023-02-01T21:41:04.769Z,61.39
2023-02-01T21:42:04.765Z,65.18
2023-02-01T21:43:04.770Z,63.13
2023-02-01T21:44:04.756Z,56.83
2023-02-01T21:45:04.755Z,58.51
2023-02-01T21:46:04.795Z,59.71
2023-02-01T21:47:06.387Z,61.32
2023-02-01T21:48:04.716Z,55.33
2023-02-01T21:49:06.866Z,57.49
2023-02-01T21:50:04.691Z,58.41
2023-02-01T21:51:08.464Z,59.18
2023-02-01T21:52:04.683Z,59.58
2023-02-01T21:53:05.428Z,62.31
2023-02-01T21:54:12.570Z,61.87
2023-02-01T21:55:04.655Z,61.38
2023-02-01T21:56:04.649Z,61.47
2023-02-01T21:57:04.655Z,55.79
2023-02-01T21:58:04.637Z,58.88
2023-02-01T21:59:04.636Z,61.62
2023-02-01T22:00:04.622Z,62.49
2023-02-01T22:01:04.633Z,55.37
2023-02-01T22:02:04.737Z,61.82
2023-02-01T22:03:04.608Z,63.41
2023-02-01T22:04:04.574Z,59.47
2023-02-01T22:05:04.585Z,61.49
2023-02-01T22:06:04.561Z,54.08
2023-02-01T22:07:04.544Z,55.78
2023-02-01T22:08:05.555Z,61.10
2023-02-01T22:09:04.547Z,61.36
2023-02-01T22:10:04.589Z,58.76
2023-02-01T22:11:04.517Z,56.66
2023-02-01T22:12:04.514Z,58.84
2023-02-01T22:13:04.519Z,60.76
2023-02-01T22:14:04.491Z,62.18
2023-02-01T22:15:04.500Z,62.82
2023-02-01T22:16:04.496Z,62.79
2023-02-01T22:17:05.406Z,57.79
2023-02-01T22:18:04.464Z,61.33
2023-02-01T22:19:04.550Z,58.24
2023-02-01T22:20:04.461Z,57.90
2023-02-01T22:21:04.459Z,61.76
2023-02-01T22:22:04.437Z,55.56
2023-02-01T22:23:04.434Z,61.40
2023-02-01T22:24:04.537Z,61.51
2023-02-01T22:25:04.411Z,63.28
2023-02-01T22:26:04.434Z,59.42
2023-02-01T22:27:14.449Z,53.90
2023-02-01T22:28:32.840Z,61.92
2023-02-01T22:29:07.409Z,56.71
2023-02-01T22:30:04.367Z,61.09
2023-02-01T22:31:06.138Z,55.92
2023-02-01T22:32:05.893Z,63.92
2023-02-01T22:33:04.405Z,58.03
2023-02-01T22:34:04.364Z,53.58
2023-02-01T22:35:06.935Z,53.67
2023-02-01T22:36:04.371Z,60.51
2023-02-01T22:37:04.307Z,52.74
2023-02-01T22:38:04.307Z,59.66
2023-02-01T22:39:04.302Z,62.11
2023-02-01T22:40:04.326Z,58.04
2023-02-01T22:41:04.348Z,59.89
2023-02-01T22:42:04.272Z,59.30
2023-02-01T22:43:04.259Z,59.35
2023-02-01T22:44:04.967Z,58.52
2023-02-01T22:45:04.246Z,59.58
2023-02-01T22:46:05.899Z,58.18
2023-02-01T22:47:04.251Z,62.80
2023-02-01T22:48:04.986Z,57.47
2023-02-01T22:49:04.502Z,59.15
2023-02-01T22:50:06.215Z,55.42
2023-02-01T22:51:05.080Z,61.93
2023-02-01T22:52:04.169Z,62.29
2023-02-01T22:53:04.156Z,61.71
2023-02-01T22:54:04.172Z,59.59
2023-02-01T22:55:04.144Z,53.97
2023-02-01T22:56:06.392Z,57.75
2023-02-01T22:57:04.128Z,61.48
2023-02-01T22:58:06.005Z,56.52
2023-02-01T22:59:04.099Z,59.11
2023-02-01T23:00:04.121Z,56.99
2023-02-01T23:01:04.113Z,64.98
2023-02-01T23:02:04.077Z,60.05
2023-02-01T23:03:04.106Z,54.22
2023-02-01T23:04:04.068Z,51.78
2023-02-01T23:05:04.065Z,55.01
2023-02-01T23:06:04.055Z,50.41
2023-02-01T23:07:04.045Z,58.40
2023-02-01T23:08:04.015Z,50.12
2023-02-01T23:09:05.034Z,53.73
2023-02-01T23:10:04.005Z,58.94
2023-02-01T23:11:04.002Z,53.91
2023-02-01T23:12:03.994Z,61.88
2023-02-01T23:13:04.011Z,61.68
2023-02-01T23:14:03.969Z,58.82
2023-02-01T23:15:03.967Z,59.43
2023-02-01T23:16:03.993Z,60.94
2023-02-01T23:17:03.977Z,55.90
2023-02-01T23:18:03.960Z,56.05
2023-02-01T23:19:03.977Z,57.55
2023-02-01T23:20:03.932Z,58.11
2023-02-01T23:21:03.924Z,57.34
2023-02-01T23:22:04.043Z,56.63
2023-02-01T23:23:03.917Z,58.13
2023-02-01T23:24:05.862Z,51.99
2023-02-01T23:25:03.889Z,61.53
2023-02-01T23:26:05.010Z,54.44
2023-02-01T23:27:05.987Z,51.54
2023-02-01T23:28:03.864Z,65.31
2023-02-01T23:29:03.855Z,57.67
2023-02-01T23:30:03.848Z,55.61
2023-02-01T23:31:03.919Z,47.13
2023-02-01T23:32:05.450Z,55.50
2023-02-01T23:33:03.834Z,48.87
2023-02-01T23:34:03.816Z,43.13
2023-02-01T23:35:03.845Z,57.44
2023-02-01T23:36:03.827Z,51.76
2023-02-01T23:37:03.796Z,58.89
2023-02-01T23:38:03.782Z,57.85
2023-02-01T23:39:03.778Z,53.23
2023-02-01T23:40:03.763Z,55.15
2023-02-01T23:41:03.748Z,57.68
2023-02-01T23:42:04.442Z,56.86
2023-02-01T23:43:04.386Z,49.35
2023-02-01T23:44:03.736Z,40.67
2023-02-01T23:45:03.738Z,39.83
2023-02-01T23:46:03.740Z,50.13
2023-02-01T23:47:03.724Z,53.76
2023-02-01T23:48:03.703Z,53.00
2023-02-01T23:49:03.698Z,45.45
2023-02-01T23:50:03.691Z,53.57
2023-02-01T23:51:03.689Z,46.27
2023-02-01T23:52:03.663Z,56.49
2023-02-01T23:53:05.375Z,55.74
2023-02-01T23:54:03.651Z,60.32
2023-02-01T23:55:06.446Z,54.85
2023-02-01T23:56:03.641Z,54.26
2023-02-01T23:57:03.646Z,44.36
2023-02-01T23:58:03.621Z,46.59
2023-02-01T23:59:03.609Z,44.08
